Time;durP1;ratioP1;P1;durP2;ratioP2;P2;SDS_P1;SDS_P2;PMS_P1;PMS_P2;Temp;Humidity;BMP_temperature;BMP_pressure;BME280_temperature;BME280_humidity;BME280_pressure;Samples;Min_cycle;Max_cycle;Signal;HPM_P1;HPM_P2
2022/10/14 00:01:38;;;;;;;3.33;3.03;;;19.50;58.50;;;;;;5013291;28;20225;-71
2022/10/14 00:04:05;;;;;;;3.15;2.95;;;19.40;58.50;;;;;;5013505;28;20216;-71
2022/10/14 00:06:33;;;;;;;3.45;2.85;;;19.50;58.50;;;;;;5013600;28;20251;-71
2022/10/14 00:09:00;;;;;;;3.10;2.90;;;19.50;58.50;;;;;;5014084;28;20185;-71
2022/10/14 00:11:29;;;;;;;4.40;3.25;;;19.40;58.50;;;;;;5029295;28;20205;-71
2022/10/14 00:13:58;;;;;;;4.68;3.10;;;19.50;58.60;;;;;;5012644;28;20246;-71
2022/10/14 00:16:26;;;;;;;4.90;3.40;;;19.40;58.50;;;;;;5012655;28;20204;-71
2022/10/14 00:18:53;;;;;;;3.10;2.90;;;19.40;58.50;;;;;;4996426;28;20243;-71
2022/10/14 00:21:21;;;;;;;3.95;3.35;;;19.40;58.50;;;;;;5012394;28;20224;-71
2022/10/14 00:23:48;;;;;;;3.60;2.85;;;19.40;58.50;;;;;;5012437;28;20224;-71
2022/10/14 00:26:16;;;;;;;3.47;3.17;;;19.40;58.60;;;;;;5012896;28;20216;-71
2022/10/14 00:28:44;;;;;;;3.40;2.90;;;19.40;58.50;;;;;;5016275;28;20201;-71
2022/10/14 00:31:12;;;;;;;3.30;3.00;;;19.40;58.60;;;;;;5017288;28;20201;-71
2022/10/14 00:33:39;;;;;;;3.63;2.95;;;19.40;58.60;;;;;;5017272;28;20229;-71
2022/10/14 00:36:07;;;;;;;3.75;3.10;;;19.40;58.60;;;;;;5016775;28;20197;-71
2022/10/14 00:38:35;;;;;;;3.20;2.90;;;19.40;58.60;;;;;;5016994;28;20204;-71
2022/10/14 00:41:02;;;;;;;3.53;3.00;;;19.40;58.60;;;;;;5017576;28;20216;-71
2022/10/14 00:43:29;;;;;;;3.70;3.05;;;19.40;58.60;;;;;;5016051;28;20264;-71
2022/10/14 00:45:56;;;;;;;3.42;3.22;;;19.40;58.60;;;;;;5015964;28;20719;-71
2022/10/14 00:48:25;;;;;;;3.40;2.88;;;19.40;58.60;;;;;;4999965;28;20212;-71
2022/10/14 00:50:55;;;;;;;3.13;2.75;;;19.40;58.60;;;;;;5016807;28;20189;-71
2022/10/14 00:53:22;;;;;;;3.33;3.13;;;19.40;58.70;;;;;;5015973;28;20303;-71
2022/10/14 00:55:50;;;;;;;3.30;3.00;;;19.40;58.70;;;;;;5015529;28;20228;-71
2022/10/14 00:58:17;;;;;;;3.22;2.88;;;19.40;58.70;;;;;;5015946;28;20239;-71
2022/10/14 01:00:44;;;;;;;3.28;2.97;;;19.40;58.70;;;;;;5015420;28;20221;-71
2022/10/14 01:03:18;;;;;;;5.05;3.08;;;19.30;58.70;;;;;;5015708;28;20192;-71
2022/10/14 01:05:49;;;;;;;3.13;2.80;;;19.30;58.70;;;;;;5016611;28;20291;-71
2022/10/14 01:08:19;;;;;;;2.80;2.60;;;19.30;58.70;;;;;;5016348;28;20204;-71
2022/10/14 01:10:49;;;;;;;3.40;3.00;;;19.30;58.70;;;;;;5016362;28;20201;-71
2022/10/14 01:13:20;;;;;;;3.08;2.78;;;19.30;58.70;;;;;;5000453;28;20211;-71
2022/10/14 01:15:51;;;;;;;3.17;2.88;;;19.30;58.70;;;;;;5015561;28;20691;-71
2022/10/14 01:18:24;;;;;;;3.40;3.10;;;19.30;58.70;;;;;;5015442;28;20256;-71
2022/10/14 01:21:09;;;;;;;3.03;2.65;;;19.30;58.70;;;;;;5015201;28;20217;-71
2022/10/14 01:23:52;;;;;;;3.00;2.70;;;19.30;58.80;;;;;;5015384;28;20204;-71
2022/10/14 01:26:36;;;;;;;3.13;2.92;;;19.30;58.70;;;;;;5015132;28;20207;-71
2022/10/14 01:29:14;;;;;;;4.70;3.30;;;19.30;58.80;;;;;;5015996;28;20204;-71
2022/10/14 01:31:45;;;;;;;2.72;2.53;;;19.30;58.80;;;;;;5014948;28;20603;-71
2022/10/14 01:34:13;;;;;;;3.17;2.97;;;19.30;58.80;;;;;;5015432;28;20220;-71
2022/10/14 01:36:44;;;;;;;3.83;3.08;;;19.30;58.70;;;;;;5015017;28;20208;-71
2022/10/14 01:39:13;;;;;;;3.40;2.70;;;19.30;58.70;;;;;;5014572;28;20204;-71
2022/10/14 01:41:41;;;;;;;3.05;2.85;;;19.30;58.70;;;;;;5014897;28;20247;-71
2022/10/14 01:44:09;;;;;;;3.40;3.10;;;19.30;58.80;;;;;;5015666;28;20222;-71
2022/10/14 01:46:40;;;;;;;3.28;2.97;;;19.30;58.80;;;;;;4998893;28;20616;-71
2022/10/14 01:49:11;;;;;;;3.40;2.90;;;19.30;58.80;;;;;;5014801;28;20239;-71
2022/10/14 01:51:39;;;;;;;3.08;2.78;;;19.20;59.30;;;;;;5014920;28;20215;-71
2022/10/14 01:54:08;;;;;;;3.17;2.88;;;19.30;58.80;;;;;;5014192;28;20230;-71
2022/10/14 01:56:35;;;;;;;2.97;2.60;;;19.30;58.80;;;;;;5014689;28;20201;-71
2022/10/14 01:59:03;;;;;;;3.17;2.97;;;19.30;58.80;;;;;;4998039;28;20197;-71
2022/10/14 02:01:33;;;;;;;3.50;3.20;;;19.30;58.80;;;;;;5014221;28;20216;-71
2022/10/14 02:04:00;;;;;;;3.30;3.00;;;19.30;58.80;;;;;;5030496;28;20228;-71
2022/10/14 02:06:32;;;;;;;3.10;2.90;;;19.30;58.80;;;;;;5014179;28;20197;-71
2022/10/14 02:09:03;;;;;;;3.50;3.20;;;19.30;58.80;;;;;;5013993;28;20552;-71
2022/10/14 02:11:33;;;;;;;3.40;3.10;;;19.30;58.80;;;;;;5013806;28;20200;-71
2022/10/14 02:14:11;;;;;;;3.45;3.15;;;19.30;58.80;;;;;;5013935;28;20224;-71
2022/10/14 02:16:40;;;;;;;3.75;3.10;;;19.30;58.80;;;;;;5030242;28;20259;-71
2022/10/14 02:19:11;;;;;;;3.33;2.97;;;19.30;58.90;;;;;;5013884;28;20267;-71
2022/10/14 02:21:44;;;;;;;3.72;2.70;;;19.30;58.90;;;;;;5013719;28;20207;-71
2022/10/14 02:24:22;;;;;;;3.10;2.90;;;19.20;58.80;;;;;;5013681;28;20217;-71
2022/10/14 02:26:50;;;;;;;3.75;2.83;;;19.30;58.80;;;;;;5014408;28;20189;-71
2022/10/14 02:29:18;;;;;;;4.28;3.03;;;19.30;58.80;;;;;;5013517;28;20266;-71
2022/10/14 02:31:45;;;;;;;4.05;2.72;;;19.20;58.80;;;;;;5014807;28;20271;-71
2022/10/14 02:34:13;;;;;;;4.13;2.95;;;19.20;58.80;;;;;;5013594;28;20655;-71
2022/10/14 02:36:41;;;;;;;4.93;3.00;;;19.20;58.80;;;;;;5013592;28;20221;-71
2022/10/14 02:39:10;;;;;;;3.10;2.90;;;19.30;59.50;;;;;;5013365;28;20296;-71
2022/10/14 02:41:37;;;;;;;3.40;3.10;;;19.30;58.90;;;;;;5013321;28;20266;-71
2022/10/14 02:44:05;;;;;;;3.22;2.92;;;19.30;58.90;;;;;;5013416;28;20220;-71
2022/10/14 02:46:32;;;;;;;3.40;3.10;;;19.30;58.90;;;;;;5013697;28;20201;-71
2022/10/14 02:49:00;;;;;;;3.08;2.80;;;19.20;58.80;;;;;;5013149;28;20659;-71
2022/10/14 02:51:27;;;;;;;2.92;2.72;;;19.20;58.90;;;;;;5013968;28;20216;-71
2022/10/14 02:53:56;;;;;;;4.47;2.80;;;19.20;58.80;;;;;;5013406;28;20201;-71
2022/10/14 02:56:26;;;;;;;3.03;2.72;;;19.20;58.80;;;;;;5014460;28;20201;-71
2022/10/14 02:58:52;;;;;;;3.30;2.95;;;19.30;58.90;;;;;;5013879;28;20189;-71
2022/10/14 03:01:22;;;;;;;3.30;3.00;;;19.20;58.80;;;;;;5015904;28;20236;-71
2022/10/14 03:03:49;;;;;;;3.30;3.00;;;19.20;58.80;;;;;;5013452;28;20201;-71
2022/10/14 03:06:16;;;;;;;3.38;3.03;;;19.30;58.90;;;;;;5013757;28;20606;-71
2022/10/14 03:08:44;;;;;;;2.83;2.60;;;19.20;58.80;;;;;;5014007;28;20287;-71
2022/10/14 03:11:12;;;;;;;3.10;2.80;;;19.30;58.80;;;;;;5015071;28;20656;-71
2022/10/14 03:13:40;;;;;;;3.40;3.10;;;19.30;58.80;;;;;;5013313;28;20219;-71
2022/10/14 03:16:07;;;;;;;3.55;2.95;;;19.20;58.80;;;;;;5013501;28;20256;-71
2022/10/14 03:18:39;;;;;;;3.90;2.83;;;19.30;58.80;;;;;;5013287;28;20240;-71
2022/10/14 03:21:17;;;;;;;2.90;2.70;;;19.30;58.80;;;;;;5030276;28;20201;-71
2022/10/14 03:23:44;;;;;;;2.67;2.47;;;19.20;58.70;;;;;;5013223;28;20262;-71
2022/10/14 03:26:11;;;;;;;2.60;2.40;;;19.30;58.70;;;;;;5013275;28;20689;-71
2022/10/14 03:28:42;;;;;;;3.05;2.67;;;19.30;58.70;;;;;;5012752;28;20204;-71
2022/10/14 03:31:20;;;;;;;2.72;2.53;;;19.40;58.60;;;;;;5013957;28;20188;-71
2022/10/14 03:34:13;;;;;;;2.45;2.33;;;19.40;58.40;;;;;;5011869;28;20290;-71
2022/10/14 03:36:42;;;;;;;3.22;2.67;;;19.50;58.40;;;;;;5012711;28;20731;-71
2022/10/14 03:39:10;;;;;;;2.97;2.78;;;19.50;58.30;;;;;;5012810;28;20268;-71
2022/10/14 03:41:46;;;;;;;2.75;2.55;;;19.50;58.10;;;;;;5012885;28;20208;-71
2022/10/14 03:44:18;;;;;;;2.90;2.60;;;19.60;58.10;;;;;;5013291;28;20311;-71
2022/10/14 03:47:05;;;;;;;2.90;2.70;;;19.70;57.90;;;;;;5012962;28;20726;-71
2022/10/14 03:49:33;;;;;;;2.92;2.65;;;19.70;57.90;;;;;;5029431;28;20275;-71
2022/10/14 03:52:08;;;;;;;2.70;2.50;;;19.70;57.70;;;;;;4998329;28;20258;-71
2022/10/14 03:54:55;;;;;;;3.20;2.90;;;19.80;57.60;;;;;;5013917;28;20223;-71
2022/10/14 03:57:22;;;;;;;2.88;2.55;;;19.80;57.50;;;;;;5013285;28;20260;-71
2022/10/14 03:59:55;;;;;;;2.90;2.63;;;19.80;57.40;;;;;;5013399;28;20282;-71
2022/10/14 04:02:26;;;;;;;3.08;2.78;;;19.80;57.40;;;;;;5016578;28;20635;-71
2022/10/14 04:04:56;;;;;;;2.83;2.63;;;19.90;57.40;;;;;;5001040;28;20685;-71
2022/10/14 04:07:23;;;;;;;3.10;2.80;;;19.90;57.40;;;;;;5017023;28;20200;-71
2022/10/14 04:09:55;;;;;;;3.92;2.63;;;19.80;57.30;;;;;;5017235;28;20192;-71
2022/10/14 04:12:23;;;;;;;2.92;2.72;;;19.80;57.30;;;;;;5016621;28;20613;-71
2022/10/14 04:15:02;;;;;;;3.00;2.80;;;19.80;57.40;;;;;;5016596;28;20216;-71
2022/10/14 04:17:38;;;;;;;2.65;2.40;;;19.80;57.40;;;;;;5017407;28;20191;-71
2022/10/14 04:20:11;;;;;;;4.57;2.80;;;19.70;57.40;;;;;;5001166;28;20372;-71
2022/10/14 04:22:39;;;;;;;3.33;3.03;;;19.70;57.50;;;;;;5016324;28;20594;-71
2022/10/14 04:25:07;;;;;;;3.22;2.92;;;19.70;57.60;;;;;;5016503;28;20228;-71
2022/10/14 04:27:35;;;;;;;3.35;3.05;;;19.70;57.60;;;;;;5017605;28;20284;-71
2022/10/14 04:30:09;;;;;;;3.97;2.90;;;19.70;57.60;;;;;;5016662;28;20181;-71
2022/10/14 04:32:48;;;;;;;3.20;3.00;;;19.60;57.60;;;;;;5017073;28;20185;-71
2022/10/14 04:35:16;;;;;;;3.50;2.85;;;19.60;57.60;;;;;;5000725;28;20220;-70
2022/10/14 04:37:47;;;;;;;2.97;2.78;;;19.70;57.70;;;;;;5016766;28;20286;-71
2022/10/14 04:40:24;;;;;;;3.17;2.80;;;19.60;58.30;;;;;;5017362;28;20216;-71
2022/10/14 04:42:56;;;;;;;3.40;3.17;;;19.60;58.00;;;;;;5002154;28;20212;-71
2022/10/14 04:45:28;;;;;;;3.55;2.90;;;19.60;58.50;;;;;;5017636;28;20219;-71
2022/10/14 04:48:00;;;;;;;3.88;3.08;;;19.60;58.50;;;;;;5017715;28;20283;-71
2022/10/14 04:50:28;;;;;;;3.58;3.28;;;19.60;58.70;;;;;;5016719;28;20200;-71
2022/10/14 04:53:14;;;;;;;3.55;3.25;;;19.50;58.70;;;;;;5017687;28;20547;-72
2022/10/14 04:55:55;;;;;;;3.58;3.30;;;19.50;58.90;;;;;;5016901;28;20244;-72
2022/10/14 04:58:22;;;;;;;4.10;3.30;;;19.50;58.90;;;;;;5016933;28;20200;-72
2022/10/14 05:00:53;;;;;;;5.15;3.15;;;19.50;59.00;;;;;;5016105;28;20251;-72
2022/10/14 05:03:27;;;;;;;3.00;2.80;;;19.50;59.60;;;;;;5015668;28;20247;-72
2022/10/14 05:05:54;;;;;;;5.15;3.20;;;19.50;59.00;;;;;;5015606;28;20590;-72
2022/10/14 05:08:21;;;;;;;3.45;3.20;;;19.50;59.00;;;;;;5015511;28;20200;-71
2022/10/14 05:10:52;;;;;;;3.40;3.10;;;19.50;59.20;;;;;;5000664;28;20185;-71
2022/10/14 05:13:34;;;;;;;3.58;3.28;;;19.50;59.20;;;;;;5015114;28;20565;-71
2022/10/14 05:16:07;;;;;;;3.47;3.13;;;19.50;59.40;;;;;;5016021;28;20631;-71
2022/10/14 05:18:35;;;;;;;3.90;3.60;;;19.50;59.30;;;;;;5032428;28;20656;-71
2022/10/14 05:21:06;;;;;;;3.78;3.33;;;19.50;59.20;;;;;;5015602;28;20247;-71
2022/10/14 05:24:02;;;;;;;3.85;3.40;;;19.50;59.20;;;;;;5008068;28;20223;-71
2022/10/14 05:26:33;;;;;;;3.67;3.38;;;19.50;59.10;;;;;;5015412;28;20225;-71
2022/10/14 05:29:03;;;;;;;4.88;3.70;;;19.50;59.10;;;;;;5015549;28;20660;-71
2022/10/14 05:31:32;;;;;;;4.43;3.38;;;19.40;59.00;;;;;;4999019;28;20203;-71
2022/10/14 05:34:15;;;;;;;4.07;3.45;;;19.40;59.00;;;;;;5015554;28;20691;-71
2022/10/14 05:36:43;;;;;;;3.70;3.35;;;19.50;59.10;;;;;;5015490;28;20251;-72
2022/10/14 05:39:11;;;;;;;3.90;3.50;;;19.50;59.00;;;;;;4999228;28;20247;-71
2022/10/14 05:41:38;;;;;;;3.97;3.58;;;19.40;59.00;;;;;;5015489;28;20207;-71
2022/10/14 05:44:06;;;;;;;4.13;3.30;;;19.40;59.00;;;;;;5018272;28;20252;-71
2022/10/14 05:46:35;;;;;;;3.90;3.60;;;19.40;59.00;;;;;;5015788;28;20201;-71
2022/10/14 05:49:04;;;;;;;3.92;3.58;;;19.40;59.00;;;;;;5014620;28;20192;-71
2022/10/14 05:51:34;;;;;;;4.05;3.17;;;19.40;59.00;;;;;;5015541;28;20193;-71
2022/10/14 05:54:11;;;;;;;3.85;3.50;;;19.40;59.00;;;;;;5015003;28;20216;-71
2022/10/14 05:56:41;;;;;;;4.53;3.40;;;19.40;59.00;;;;;;5014383;28;20201;-71
2022/10/14 05:59:09;;;;;;;4.28;3.88;;;19.40;59.00;;;;;;5014380;28;20207;-71
2022/10/14 06:01:37;;;;;;;4.50;3.72;;;19.40;59.00;;;;;;5014273;28;20639;-71
2022/10/14 06:04:04;;;;;;;4.07;3.42;;;19.30;58.90;;;;;;5014399;28;20233;-71
2022/10/14 06:06:32;;;;;;;3.67;2.97;;;19.40;59.00;;;;;;5014757;28;20738;-71
2022/10/14 06:08:59;;;;;;;3.90;3.15;;;19.40;59.60;;;;;;5014515;28;20254;-71
2022/10/14 06:11:27;;;;;;;3.50;3.20;;;19.40;59.00;;;;;;5014962;28;20667;-71
2022/10/14 06:13:54;;;;;;;3.50;2.85;;;19.40;59.00;;;;;;5014340;28;20553;-71
2022/10/14 06:16:21;;;;;;;2.95;2.75;;;19.40;58.90;;;;;;5014840;28;20200;-71
2022/10/14 06:18:50;;;;;;;4.18;3.20;;;19.40;58.80;;;;;;5014582;28;20562;-71
2022/10/14 06:21:17;;;;;;;3.85;3.42;;;19.50;58.70;;;;;;5013888;28;20201;-71
2022/10/14 06:23:44;;;;;;;3.88;3.35;;;19.50;58.60;;;;;;5013398;28;20267;-71
2022/10/14 06:26:11;;;;;;;3.90;3.60;;;19.60;58.50;;;;;;5013087;28;20204;-71
2022/10/14 06:28:39;;;;;;;3.40;3.10;;;19.60;58.50;;;;;;5013841;28;20192;-71
2022/10/14 06:31:06;;;;;;;3.85;3.42;;;19.60;58.50;;;;;;5015167;28;20191;-71
2022/10/14 06:33:33;;;;;;;4.22;3.65;;;19.60;58.50;;;;;;5013651;28;20565;-71
2022/10/14 06:36:04;;;;;;;3.60;3.30;;;19.60;58.40;;;;;;5014310;28;20274;-71
2022/10/14 06:38:31;;;;;;;4.97;3.55;;;19.60;58.30;;;;;;5013580;28;20358;-71
2022/10/14 06:40:59;;;;;;;4.03;3.60;;;19.60;58.30;;;;;;5013743;28;20205;-71
2022/10/14 06:43:27;;;;;;;5.40;4.05;;;19.70;58.30;;;;;;5014327;28;20216;-71
2022/10/14 06:45:56;;;;;;;4.13;3.75;;;19.70;58.20;;;;;;5013389;28;20699;-71
2022/10/14 06:48:23;;;;;;;6.43;4.97;;;19.70;58.20;;;;;;5013144;28;20200;-71
2022/10/14 06:50:50;;;;;;;6.28;5.57;;;19.70;58.30;;;;;;5014457;28;20197;-71
2022/10/14 06:53:18;;;;;;;4.75;4.35;;;19.70;58.20;;;;;;5013244;28;20280;-71
2022/10/14 06:55:45;;;;;;;4.72;4.32;;;19.60;58.20;;;;;;5013419;28;20271;-71
2022/10/14 06:58:12;;;;;;;4.88;4.47;;;19.70;58.30;;;;;;4997695;28;20201;-71
2022/10/14 07:00:40;;;;;;;4.85;4.35;;;19.60;58.30;;;;;;5013346;28;20201;-71
2022/10/14 07:03:07;;;;;;;6.60;4.38;;;19.70;58.40;;;;;;5013190;28;20643;-71
2022/10/14 07:05:34;;;;;;;4.95;4.53;;;19.70;58.40;;;;;;4998359;28;20220;-71
2022/10/14 07:08:00;;;;;;;5.07;4.47;;;19.60;58.40;;;;;;5014117;28;20533;-71
2022/10/14 07:10:29;;;;;;;5.15;4.65;;;19.60;58.30;;;;;;5014087;28;20192;-71
2022/10/14 07:12:56;;;;;;;4.82;4.43;;;19.70;58.40;;;;;;5014030;28;20254;-71
2022/10/14 07:15:23;;;;;;;4.57;4.18;;;19.70;58.30;;;;;;5013285;28;20566;-71
2022/10/14 07:17:50;;;;;;;5.38;4.32;;;19.70;58.30;;;;;;5014272;28;20197;-71
2022/10/14 07:20:17;;;;;;;4.35;4.03;;;19.70;58.30;;;;;;5012982;28;20219;-71
2022/10/14 07:22:44;;;;;;;4.75;4.35;;;19.70;58.40;;;;;;5013090;28;20699;-71
2022/10/14 07:25:11;;;;;;;4.47;3.90;;;19.70;58.40;;;;;;5012991;28;20220;-71
2022/10/14 07:27:39;;;;;;;4.97;4.47;;;19.70;58.30;;;;;;5012896;28;20255;-71
2022/10/14 07:30:07;;;;;;;4.68;4.22;;;19.70;58.30;;;;;;5013025;28;20201;-71
2022/10/14 07:32:35;;;;;;;4.93;3.70;;;19.70;58.30;;;;;;5012974;28;20204;-71
2022/10/14 07:35:02;;;;;;;4.13;3.72;;;19.70;58.30;;;;;;5012701;28;20274;-71
2022/10/14 07:37:29;;;;;;;6.63;4.95;;;19.70;58.20;;;;;;5012625;28;20203;-71
2022/10/14 07:39:57;;;;;;;5.03;4.00;;;19.70;58.20;;;;;;5012851;28;20254;-71
2022/10/14 07:42:24;;;;;;;5.03;3.95;;;19.70;58.20;;;;;;5013208;28;20200;-71
2022/10/14 07:44:54;;;;;;;5.45;4.70;;;19.70;58.20;;;;;;5012865;28;20220;-71
2022/10/14 07:47:21;;;;;;;4.35;3.78;;;19.80;58.30;;;;;;5013596;28;20205;-71
2022/10/14 07:49:48;;;;;;;5.10;4.00;;;19.80;58.20;;;;;;5012905;28;20201;-71
2022/10/14 07:52:18;;;;;;;5.93;4.22;;;19.80;58.20;;;;;;5012974;28;20200;-71
2022/10/14 07:54:45;;;;;;;5.10;4.60;;;19.90;58.20;;;;;;5012644;28;20231;-71
2022/10/14 07:57:12;;;;;;;4.68;4.00;;;19.80;58.00;;;;;;5014156;28;20193;-71
2022/10/14 07:59:39;;;;;;;5.03;4.57;;;19.90;58.10;;;;;;5012621;28;20267;-71
2022/10/14 08:02:07;;;;;;;4.97;3.97;;;19.90;58.00;;;;;;5012729;28;20208;-71
2022/10/14 08:04:34;;;;;;;5.20;4.38;;;19.90;57.90;;;;;;4996745;28;20224;-71
2022/10/14 08:07:03;;;;;;;4.30;3.90;;;19.90;57.90;;;;;;5012842;28;20209;-71
2022/10/14 08:09:30;;;;;;;4.38;3.83;;;19.90;57.80;;;;;;5012661;28;20613;-71
2022/10/14 08:11:57;;;;;;;4.63;3.63;;;19.90;57.80;;;;;;5013295;28;20212;-71
2022/10/14 08:14:25;;;;;;;4.20;3.80;;;20.00;57.90;;;;;;5013427;28;20216;-71
2022/10/14 08:16:52;;;;;;;3.65;3.15;;;20.00;57.80;;;;;;5014647;28;20224;-71
2022/10/14 08:19:21;;;;;;;3.40;3.13;;;20.00;57.80;;;;;;5014498;28;20543;-71
2022/10/14 08:21:47;;;;;;;3.97;3.58;;;20.00;57.70;;;;;;5013980;28;20251;-71
2022/10/14 08:24:14;;;;;;;3.88;3.50;;;20.00;57.70;;;;;;5012900;28;20217;-71
2022/10/14 08:26:49;;;;;;;4.35;3.95;;;20.00;57.80;;;;;;5012736;28;20271;-71
2022/10/14 08:29:16;;;;;;;4.63;4.13;;;20.00;57.80;;;;;;5012447;28;20196;-71
2022/10/14 08:31:43;;;;;;;4.38;3.75;;;20.00;57.60;;;;;;5013771;28;20196;-71
2022/10/14 08:34:10;;;;;;;4.05;3.65;;;20.00;57.70;;;;;;4996669;28;20310;-71
2022/10/14 08:36:39;;;;;;;3.83;3.50;;;20.00;57.60;;;;;;5012181;28;20196;-71
2022/10/14 08:39:05;;;;;;;3.78;3.47;;;20.00;57.50;;;;;;5012264;28;20323;-71
2022/10/14 08:41:41;;;;;;;4.00;3.60;;;20.10;57.50;;;;;;5013527;28;20663;-71
2022/10/14 08:44:13;;;;;;;4.53;3.63;;;20.10;57.50;;;;;;5013405;28;20220;-71
2022/10/14 08:46:42;;;;;;;3.90;3.45;;;20.10;57.30;;;;;;5012105;28;20303;-71
2022/10/14 08:49:12;;;;;;;4.20;3.80;;;20.20;57.30;;;;;;5014929;28;20288;-71
2022/10/14 08:51:41;;;;;;;3.53;3.22;;;20.20;57.20;;;;;;5016021;28;20197;-71
2022/10/14 08:54:12;;;;;;;5.82;3.53;;;20.30;57.20;;;;;;5015785;28;20704;-71
2022/10/14 08:56:39;;;;;;;4.28;3.78;;;20.30;57.10;;;;;;5015714;28;20193;-71
2022/10/14 08:59:06;;;;;;;4.82;3.72;;;20.30;57.00;;;;;;4999503;28;20201;-71
2022/10/14 09:01:34;;;;;;;3.95;3.50;;;20.30;56.90;;;;;;5015802;28;20201;-71
2022/10/14 09:04:03;;;;;;;4.30;3.47;;;20.40;57.00;;;;;;5015428;28;20228;-71
2022/10/14 09:06:31;;;;;;;4.28;3.38;;;20.40;56.80;;;;;;5015622;28;20240;-71
2022/10/14 09:09:03;;;;;;;3.90;3.60;;;20.50;56.80;;;;;;5015747;28;20192;-71
2022/10/14 09:11:30;;;;;;;3.63;3.33;;;20.50;56.70;;;;;;5015322;28;20215;-71
2022/10/14 09:13:59;;;;;;;4.03;3.17;;;20.50;56.60;;;;;;5015431;28;20275;-71
2022/10/14 09:16:28;;;;;;;4.38;3.15;;;20.60;56.60;;;;;;5015822;28;20203;-71
2022/10/14 09:18:56;;;;;;;3.97;3.00;;;20.60;56.50;;;;;;5015558;28;20204;-71
2022/10/14 09:21:30;;;;;;;3.17;2.90;;;20.70;56.50;;;;;;5015613;28;20235;-71
2022/10/14 09:24:01;;;;;;;3.67;2.90;;;20.70;56.30;;;;;;5017209;28;20223;-71
2022/10/14 09:26:32;;;;;;;3.50;3.00;;;20.70;56.20;;;;;;5016586;28;20270;-71
2022/10/14 09:28:59;;;;;;;3.75;3.45;;;20.70;56.20;;;;;;5017717;28;20195;-71
2022/10/14 09:31:26;;;;;;;7.55;3.83;;;20.80;56.30;;;;;;5018776;28;20204;-71
2022/10/14 09:33:54;;;;;;;4.10;3.67;;;20.80;56.20;;;;;;5020193;28;20232;-70
2022/10/14 09:36:22;;;;;;;4.50;3.85;;;20.80;56.30;;;;;;5016996;28;20228;-70
2022/10/14 09:38:51;;;;;;;4.95;3.20;;;20.80;56.30;;;;;;5017783;28;20196;-70
2022/10/14 09:41:21;;;;;;;3.78;3.35;;;20.80;56.20;;;;;;5015237;28;20278;-70
2022/10/14 09:44:20;;;;;;;3.80;3.40;;;20.80;56.00;;;;;;5014962;28;20638;-70
2022/10/14 09:46:52;;;;;;;3.85;3.55;;;20.80;55.90;;;;;;5000347;28;20193;-71
2022/10/14 09:49:22;;;;;;;4.43;3.22;;;20.90;56.00;;;;;;5014823;28;20239;-71
2022/10/14 09:51:50;;;;;;;4.70;3.20;;;20.90;56.10;;;;;;5014914;28;20247;-71
2022/10/14 09:54:22;;;;;;;3.55;3.25;;;20.90;56.00;;;;;;5014332;28;20691;-71
2022/10/14 09:57:02;;;;;;;3.30;3.00;;;20.90;55.90;;;;;;5030821;28;20655;-71
2022/10/14 09:59:29;;;;;;;3.08;2.78;;;20.90;55.80;;;;;;5014101;28;20193;-71
2022/10/14 10:01:58;;;;;;;2.90;2.70;;;20.90;55.80;;;;;;5015452;28;20189;-71
2022/10/14 10:04:35;;;;;;;3.55;3.10;;;20.90;55.90;;;;;;5014170;28;20228;-71
2022/10/14 10:07:04;;;;;;;4.00;3.42;;;20.90;55.90;;;;;;5014992;28;20206;-71
2022/10/14 10:09:32;;;;;;;3.85;3.00;;;20.90;56.00;;;;;;5014339;28;20202;-71
2022/10/14 10:12:00;;;;;;;3.35;3.05;;;21.00;56.00;;;;;;5015313;28;20205;-71
2022/10/14 10:14:29;;;;;;;3.22;2.90;;;20.90;55.70;;;;;;5014282;28;20216;-71
2022/10/14 10:17:13;;;;;;;2.88;2.67;;;21.00;55.60;;;;;;5013995;28;20577;-71
2022/10/14 10:19:41;;;;;;;4.38;2.67;;;21.00;55.60;;;;;;5015608;28;20259;-71
2022/10/14 10:22:17;;;;;;;4.20;3.13;;;21.10;55.40;;;;;;5014114;28;20196;-71
2022/10/14 10:24:46;;;;;;;2.90;2.58;;;21.10;55.40;;;;;;4998289;28;20231;-71
2022/10/14 10:27:20;;;;;;;3.20;2.90;;;21.10;55.40;;;;;;5013648;28;20316;-71
2022/10/14 10:29:47;;;;;;;3.22;2.92;;;21.20;55.50;;;;;;5013766;28;20204;-71
2022/10/14 10:32:15;;;;;;;3.55;3.20;;;21.20;55.40;;;;;;5014803;28;20221;-71
2022/10/14 10:35:03;;;;;;;3.30;3.00;;;21.20;55.30;;;;;;5013705;28;20764;-71
2022/10/14 10:37:31;;;;;;;3.35;3.05;;;21.20;55.20;;;;;;5014526;28;20255;-71
2022/10/14 10:40:19;;;;;;;3.05;2.75;;;21.20;55.20;;;;;;5013646;28;20247;-71
2022/10/14 10:42:54;;;;;;;3.38;2.80;;;21.20;55.20;;;;;;5014348;28;20212;-70
2022/10/14 10:45:27;;;;;;;3.30;2.90;;;21.20;55.20;;;;;;5016120;28;20594;-70
2022/10/14 10:47:58;;;;;;;2.78;2.58;;;21.30;55.20;;;;;;5017276;28;20228;-70
2022/10/14 10:50:30;;;;;;;3.45;2.97;;;21.20;55.10;;;;;;5016417;28;20201;-70
2022/10/14 10:53:05;;;;;;;2.50;2.25;;;21.30;55.20;;;;;;5015288;28;20215;-70
2022/10/14 10:55:35;;;;;;;2.80;2.60;;;21.30;55.10;;;;;;5014939;28;20218;-70
2022/10/14 10:58:11;;;;;;;2.65;2.45;;;21.30;55.10;;;;;;5013591;28;20570;-70
2022/10/14 11:00:43;;;;;;;3.92;2.63;;;21.30;55.20;;;;;;5013694;28;20208;-70
2022/10/14 11:03:17;;;;;;;2.72;2.53;;;21.30;55.20;;;;;;5013982;28;20196;-70
2022/10/14 11:05:49;;;;;;;2.70;2.50;;;21.20;55.30;;;;;;5013428;28;20228;-70
2022/10/14 11:14:07;;;;;;;2.25;2.15;;;21.30;55.00;;;;;;5014588;28;20209;-70
2022/10/14 11:16:36;;;;;;;2.67;2.30;;;21.30;55.00;;;;;;5013281;28;20706;-71
2022/10/14 11:19:06;;;;;;;2.42;2.22;;;21.30;55.00;;;;;;5014580;28;20193;-71
2022/10/14 11:21:37;;;;;;;2.78;2.58;;;21.30;54.90;;;;;;5013550;28;20223;-71
2022/10/14 11:24:06;;;;;;;2.55;2.35;;;21.30;54.90;;;;;;5014443;28;20224;-71
2022/10/14 11:26:46;;;;;;;2.83;2.42;;;21.30;54.90;;;;;;5012701;28;20661;-71
2022/10/14 11:29:34;;;;;;;2.47;2.28;;;21.30;54.90;;;;;;5012712;28;20226;-71
2022/10/14 11:32:04;;;;;;;3.90;2.97;;;21.30;54.90;;;;;;5010775;28;20214;-71
2022/10/14 11:34:42;;;;;;;2.20;2.10;;;21.30;54.80;;;;;;5012799;28;20223;-71
2022/10/14 11:37:15;;;;;;;2.40;2.20;;;21.30;54.90;;;;;;5012670;28;20203;-71
2022/10/14 11:39:44;;;;;;;2.45;2.25;;;21.30;54.80;;;;;;5013181;28;20189;-71
2022/10/14 11:42:28;;;;;;;2.83;2.47;;;21.30;54.80;;;;;;5012637;28;20283;-71
2022/10/14 11:45:30;;;;;;;2.53;2.33;;;21.30;54.90;;;;;;5012360;28;20224;-71
2022/10/14 11:48:01;;;;;;;2.17;2.08;;;21.40;54.90;;;;;;5013816;28;20204;-71
2022/10/14 11:50:29;;;;;;;2.30;2.10;;;21.40;54.80;;;;;;5012898;28;20204;-71
2022/10/14 11:52:57;;;;;;;2.65;2.45;;;21.40;54.90;;;;;;5012513;28;20193;-71
2022/10/14 11:55:27;;;;;;;2.50;2.30;;;21.40;54.90;;;;;;5029053;28;20316;-71
2022/10/14 11:57:57;;;;;;;2.40;2.20;;;21.40;54.90;;;;;;5012397;28;20254;-70
2022/10/14 12:00:27;;;;;;;2.40;2.20;;;21.40;54.80;;;;;;5012389;28;20215;-70
2022/10/14 12:02:56;;;;;;;2.55;2.35;;;21.40;54.70;;;;;;5013272;28;20193;-70
2022/10/14 12:05:30;;;;;;;2.47;2.28;;;21.40;54.60;;;;;;5012278;28;20636;-70
2022/10/14 12:08:03;;;;;;;2.60;2.40;;;21.40;54.60;;;;;;5012457;28;20205;-71
2022/10/14 12:10:32;;;;;;;2.65;2.45;;;21.40;54.50;;;;;;5012225;28;20189;-71
2022/10/14 12:12:59;;;;;;;2.40;2.20;;;21.50;54.60;;;;;;5012713;28;20284;-71
2022/10/14 12:15:28;;;;;;;2.72;2.40;;;21.50;54.40;;;;;;5013669;28;20205;-71
2022/10/14 12:17:56;;;;;;;2.40;2.20;;;21.50;54.50;;;;;;5012468;28;20255;-71
2022/10/14 12:20:32;;;;;;;2.30;2.10;;;21.50;54.50;;;;;;5013156;28;20617;-71
2022/10/14 12:22:59;;;;;;;2.63;2.30;;;21.60;54.40;;;;;;5013480;28;20544;-71
2022/10/14 12:25:28;;;;;;;2.28;2.10;;;21.50;54.30;;;;;;5016453;28;20217;-71
2022/10/14 12:27:55;;;;;;;2.13;2.03;;;21.60;54.30;;;;;;5016668;28;20193;-71
2022/10/14 12:30:32;;;;;;;2.92;2.35;;;21.60;54.30;;;;;;5016391;28;20291;-71
2022/10/14 12:33:00;;;;;;;2.53;2.00;;;21.60;54.20;;;;;;5017429;28;20239;-71
2022/10/14 12:35:48;;;;;;;2.20;2.10;;;21.60;54.30;;;;;;5015958;28;20236;-71
2022/10/14 12:38:17;;;;;;;2.00;1.90;;;21.60;54.30;;;;;;5016212;28;20284;-71
2022/10/14 12:40:47;;;;;;;2.15;1.95;;;21.60;54.20;;;;;;5017087;28;20226;-71
2022/10/14 12:43:16;;;;;;;2.10;2.00;;;21.60;54.20;;;;;;5017381;28;20193;-70
2022/10/14 12:46:13;;;;;;;2.45;2.25;;;21.60;54.20;;;;;;5016201;28;20219;-70
2022/10/14 12:48:46;;;;;;;1.95;1.85;;;21.60;54.20;;;;;;5016876;28;20197;-70
2022/10/14 12:51:16;;;;;;;2.25;2.05;;;21.60;54.10;;;;;;5016677;28;20196;-70
2022/10/14 12:54:05;;;;;;;2.35;2.20;;;21.60;54.10;;;;;;5000634;28;20211;-70
2022/10/14 12:56:38;;;;;;;2.40;2.20;;;21.60;54.10;;;;;;5011146;28;20201;-70
2022/10/14 12:59:06;;;;;;;2.25;2.00;;;21.60;54.20;;;;;;5016124;28;20271;-70
2022/10/14 13:01:38;;;;;;;2.15;1.95;;;21.60;54.10;;;;;;5033281;28;20200;-70
2022/10/14 13:04:06;;;;;;;2.10;2.00;;;21.60;54.10;;;;;;5016893;28;20227;-70
2022/10/14 13:06:38;;;;;;;2.38;2.17;;;21.60;54.20;;;;;;5017061;28;20201;-70
2022/10/14 13:09:29;;;;;;;2.00;1.90;;;21.60;54.20;;;;;;5016914;28;20205;-70
2022/10/14 13:12:39;;;;;;;2.20;2.10;;;21.60;54.10;;;;;;5018046;28;20703;-70